Aeroporto :
LOGIN :

Iscrizione | Disclaimer

   EN    FR    IT 

 










Sommario :    VFR   VFR Marginale   IFR   IFR Intensivo   IFR Molto Intensivo
Visibilità : 
Base nubi : 
>= 8 km
>= 3000ft
5 / 8 km
1000 / 3000 ft
1500m / 5 km
500 / 1000 ft
800 / 1500m
200 / 500 ft
< 800m
< 200 ft
Simboli :   Temporali  Nebbia  Neve Forte  Precipitazioni Forti  Vento > 20 kt
SIGMETs :   Varie  Temporali  Ghiacco  Turbolenza  Onda orograficha  Ceneri Vulcaniche






- Altitudine del aeroporto : 295 ft
- Codice IATA : ORN


DAOO - Es senia - Oran

ULTIMO METAR :
  • 251230Z 24017KT CAVOK 22/09 Q1022

METARs OBSOLETI :
  • 251200Z 22019KT CAVOK 21/09 Q1022
  • 251130Z 21018KT CAVOK 21/09 Q1022
  • 251100Z 22018KT CAVOK 20/08 Q1022
  • 251030Z 21015KT CAVOK 19/06 Q1022
  • 251000Z 21012KT CAVOK 18/07 Q1022

TAF TAF DAOO
Valido dal 25 a 12 ore il 26 a 12 ore UTC


251100Z 2512/2612 23015KT CAVOK
TEMPO 2512/2520 26025KT
BECMG 2609/2612 9999 SCT026



MetMap, La meteo Aeronautica in un colpo d'occhio ! - Copyright ORBIFLY Dicembre 2007 - Disclaimer

ORBIFLY MET'MAP TEAM :

Programmazione e sviluppo : Alexandra Zaïnal
Concezione : Baudouin d'Aumeries
Aiuto per la programmazione : Marc-Olivier Méhu
Supporto tecnico e logistico : Manuel Goepfert
Aiuto per la traduzione : Arnaldo La Scala

Contatto : metmap@orbifly.com




FONTI E CREDITI :

   NOAA